createdAt,value
2022-09-29T00:02:53.628Z,11.84
2022-09-29T00:05:56.250Z,11.87
2022-09-29T00:08:58.514Z,11.88
2022-09-29T00:12:00.935Z,11.83
2022-09-29T00:15:03.665Z,11.83
2022-09-29T00:18:14.772Z,11.85
2022-09-29T00:21:20.004Z,11.89
2022-09-29T00:24:22.082Z,11.87
2022-09-29T00:27:24.376Z,11.85
2022-09-29T00:30:27.244Z,11.84
2022-09-29T00:33:30.676Z,11.79
2022-09-29T00:36:33.432Z,11.82
2022-09-29T00:39:36.047Z,11.76
2022-09-29T00:42:38.800Z,11.73
2022-09-29T00:45:41.270Z,11.69
2022-09-29T00:48:44.287Z,11.69
2022-09-29T00:51:51.189Z,11.66
2022-09-29T00:54:58.741Z,11.64
2022-09-29T00:58:07.475Z,11.59
2022-09-29T01:01:10.947Z,11.59
2022-09-29T01:04:16.027Z,11.61
2022-09-29T01:07:19.406Z,11.60
2022-09-29T01:10:22.412Z,11.59
2022-09-29T01:13:25.191Z,11.65
2022-09-29T01:16:27.693Z,11.65
2022-09-29T01:19:42.767Z,11.60
2022-09-29T01:23:03.952Z,11.59
2022-09-29T01:26:22.004Z,11.55
2022-09-29T01:29:26.298Z,11.54
2022-09-29T01:32:33.759Z,11.51
2022-09-29T01:35:36.885Z,11.45
2022-09-29T01:38:43.089Z,11.44
2022-09-29T01:41:55.222Z,11.42
2022-09-29T01:45:03.051Z,11.45
2022-09-29T01:48:14.186Z,11.46
2022-09-29T01:51:19.275Z,11.46
2022-09-29T01:54:28.478Z,11.46
2022-09-29T01:57:39.572Z,11.52
2022-09-29T02:00:48.516Z,11.46
2022-09-29T02:03:50.631Z,11.36
2022-09-29T02:06:57.749Z,11.42
2022-09-29T02:10:15.976Z,11.41
2022-09-29T02:13:24.498Z,11.37
2022-09-29T02:16:30.536Z,11.37
2022-09-29T02:19:38.954Z,11.39
2022-09-29T02:22:43.737Z,11.44
2022-09-29T02:25:48.764Z,11.55
2022-09-29T02:28:52.555Z,11.59
2022-09-29T02:32:02.824Z,11.53
2022-09-29T02:35:07.580Z,11.50
2022-09-29T02:38:19.236Z,11.54
2022-09-29T02:41:40.710Z,11.56
2022-09-29T02:45:08.881Z,11.63
2022-09-29T02:48:21.140Z,11.65
2022-09-29T02:51:33.270Z,11.67
2022-09-29T02:54:43.245Z,11.70
2022-09-29T02:57:45.137Z,11.74
2022-09-29T03:00:47.509Z,11.75
2022-09-29T03:03:49.567Z,11.80
2022-09-29T03:06:51.752Z,11.77
2022-09-29T03:09:53.546Z,11.84
2022-09-29T03:12:55.526Z,11.77
2022-09-29T03:15:57.318Z,11.73
2022-09-29T03:18:59.103Z,11.75
2022-09-29T03:22:00.923Z,11.72
2022-09-29T03:25:04.695Z,11.63
2022-09-29T03:28:06.472Z,11.64
2022-09-29T03:31:09.985Z,11.64
2022-09-29T03:34:11.874Z,11.57
2022-09-29T03:37:13.668Z,11.56
2022-09-29T03:40:15.549Z,11.60
2022-09-29T03:43:17.413Z,11.53
2022-09-29T03:46:19.297Z,11.53
2022-09-29T03:49:21.221Z,11.51
2022-09-29T03:52:23.461Z,11.55
2022-09-29T03:55:25.276Z,11.50
2022-09-29T03:58:27.332Z,11.59
2022-09-29T04:01:29.109Z,11.64
2022-09-29T04:04:30.913Z,11.57
2022-09-29T04:07:32.688Z,11.59
2022-09-29T04:10:35.405Z,11.67
2022-09-29T04:13:37.210Z,11.71
2022-09-29T04:16:39.086Z,11.77
2022-09-29T04:19:40.911Z,11.72
2022-09-29T04:22:42.798Z,11.67
2022-09-29T04:25:45.279Z,11.74
2022-09-29T04:28:47.363Z,11.76
2022-09-29T04:31:49.190Z,11.79
2022-09-29T04:34:51.151Z,11.73
2022-09-29T04:37:59.917Z,11.71
2022-09-29T04:41:01.942Z,11.73
2022-09-29T04:44:03.854Z,11.71
2022-09-29T04:47:05.788Z,11.72
2022-09-29T04:50:09.454Z,11.74
2022-09-29T04:53:11.545Z,11.77
2022-09-29T04:56:13.309Z,11.84
2022-09-29T04:59:15.226Z,11.85
2022-09-29T05:02:17.722Z,11.90
2022-09-29T05:05:19.605Z,11.92
2022-09-29T05:08:21.368Z,11.89
2022-09-29T05:11:23.173Z,11.95
2022-09-29T05:14:25.021Z,11.94
2022-09-29T05:17:26.905Z,11.84
2022-09-29T05:20:34.325Z,11.83
2022-09-29T05:23:42.678Z,11.94
2022-09-29T05:26:44.632Z,12.04
2022-09-29T05:29:46.572Z,12.03
2022-09-29T05:32:48.475Z,12.04
2022-09-29T05:35:50.493Z,12.01
2022-09-29T05:38:53.882Z,11.98
2022-09-29T05:41:59.525Z,12.01
2022-09-29T05:45:01.975Z,12.08
2022-09-29T05:48:03.815Z,12.16
2022-09-29T05:51:10.763Z,12.16
2022-09-29T05:54:12.623Z,12.08
2022-09-29T05:57:14.479Z,12.12
2022-09-29T06:00:16.564Z,12.18
2022-09-29T06:03:18.427Z,12.20
2022-09-29T06:06:21.383Z,12.26
2022-09-29T06:09:23.297Z,12.25
2022-09-29T06:12:25.251Z,12.24
2022-09-29T06:15:27.092Z,12.23
2022-09-29T06:18:29.087Z,12.23
2022-09-29T06:21:31.831Z,12.20
2022-09-29T06:24:35.105Z,12.10
2022-09-29T06:27:37.061Z,12.14
2022-09-29T06:30:39.030Z,12.23
2022-09-29T06:33:41.217Z,12.20
2022-09-29T06:37:03.263Z,12.23
2022-09-29T06:40:10.764Z,12.30
2022-09-29T06:43:13.239Z,12.27
2022-09-29T06:46:15.101Z,12.17
2022-09-29T06:49:17.707Z,12.19
2022-09-29T06:52:21.442Z,12.28
2022-09-29T06:55:23.477Z,12.36
2022-09-29T06:58:25.283Z,12.30
2022-09-29T07:01:27.305Z,12.23
2022-09-29T07:04:29.361Z,12.29
2022-09-29T07:07:31.245Z,12.24
2022-09-29T07:10:33.012Z,12.20
2022-09-29T07:13:35.228Z,12.29
2022-09-29T07:16:37.201Z,12.51
2022-09-29T07:19:39.076Z,12.86
2022-09-29T07:22:41.034Z,13.05
2022-09-29T07:25:58.413Z,13.14
2022-09-29T07:29:00.405Z,13.14
2022-09-29T07:32:02.339Z,13.11
2022-09-29T07:35:05.581Z,13.10
2022-09-29T07:38:08.559Z,13.06
2022-09-29T07:41:11.829Z,12.99
2022-09-29T07:44:13.958Z,12.87
2022-09-29T07:47:15.963Z,12.86
2022-09-29T07:50:17.931Z,12.87
2022-09-29T07:53:19.821Z,12.90
2022-09-29T07:56:23.005Z,13.17
2022-09-29T07:59:24.818Z,13.49
2022-09-29T08:02:26.706Z,13.87
2022-09-29T08:05:29.353Z,13.90
2022-09-29T08:08:31.175Z,13.78
2022-09-29T08:11:37.084Z,13.94
2022-09-29T08:14:43.939Z,14.06
2022-09-29T08:17:46.023Z,14.05
2022-09-29T08:20:47.906Z,14.13
2022-09-29T08:23:49.862Z,14.02
2022-09-29T08:26:51.647Z,14.10
2022-09-29T08:29:53.494Z,14.39
2022-09-29T08:32:55.421Z,14.52
2022-09-29T08:35:58.228Z,14.56
2022-09-29T08:39:00.258Z,14.56
2022-09-29T08:42:14.553Z,14.37
2022-09-29T08:45:23.284Z,14.44
2022-09-29T08:48:26.449Z,14.42
2022-09-29T08:51:42.602Z,14.19
2022-09-29T08:54:49.149Z,14.07
2022-09-29T08:57:57.372Z,14.06
2022-09-29T09:01:17.678Z,14.12
2022-09-29T09:04:32.244Z,14.22
2022-09-29T09:07:52.418Z,14.39
2022-09-29T09:11:12.939Z,14.68
2022-09-29T09:14:36.534Z,14.78
2022-09-29T09:17:38.394Z,14.83
2022-09-29T09:20:51.719Z,15.00
2022-09-29T09:23:59.801Z,14.95
2022-09-29T09:27:03.654Z,15.02
2022-09-29T09:30:06.943Z,15.08
2022-09-29T09:33:35.289Z,15.29
2022-09-29T09:37:07.031Z,15.42
2022-09-29T09:40:21.727Z,15.25
2022-09-29T09:43:29.955Z,15.20
2022-09-29T09:46:41.334Z,15.46
2022-09-29T09:49:45.975Z,15.82
2022-09-29T09:52:52.043Z,16.20
2022-09-29T09:56:01.034Z,16.16
2022-09-29T09:59:06.291Z,16.34
2022-09-29T10:02:15.725Z,16.70
2022-09-29T10:05:24.542Z,16.93
2022-09-29T10:08:33.180Z,17.10
2022-09-29T10:11:42.126Z,17.37
2022-09-29T10:15:09.991Z,17.30
2022-09-29T10:18:24.529Z,17.14
2022-09-29T10:21:34.913Z,17.16
2022-09-29T10:24:43.439Z,17.27
2022-09-29T10:27:58.591Z,17.15
2022-09-29T10:31:01.598Z,16.85
2022-09-29T10:34:17.132Z,16.89
2022-09-29T10:37:36.024Z,17.20
2022-09-29T10:40:55.009Z,17.41
2022-09-29T10:43:57.778Z,17.61
2022-09-29T10:47:03.708Z,17.79
2022-09-29T10:50:26.443Z,18.17
2022-09-29T10:53:32.953Z,18.36
2022-09-29T10:56:35.643Z,18.35
2022-09-29T10:59:54.390Z,17.95
2022-09-29T11:03:06.818Z,18.24
2022-09-29T11:06:12.481Z,18.10
2022-09-29T11:09:18.233Z,17.99
2022-09-29T11:12:24.609Z,17.82
2022-09-29T11:15:28.738Z,17.91
2022-09-29T11:18:41.858Z,18.22
2022-09-29T11:21:53.713Z,18.38
2022-09-29T11:25:02.323Z,18.39
2022-09-29T11:28:05.211Z,18.12
2022-09-29T11:31:09.542Z,18.09
2022-09-29T11:34:21.841Z,17.78
2022-09-29T11:37:39.013Z,17.38
2022-09-29T11:41:01.720Z,17.42
2022-09-29T11:44:20.563Z,17.23
2022-09-29T11:47:45.453Z,17.19
2022-09-29T11:51:06.086Z,17.13
2022-09-29T11:54:21.078Z,17.05
2022-09-29T11:57:45.430Z,17.05
2022-09-29T12:00:58.961Z,16.98
2022-09-29T12:04:22.372Z,16.88
2022-09-29T12:07:35.487Z,17.01
2022-09-29T12:10:45.336Z,16.92
2022-09-29T12:13:48.019Z,16.81
2022-09-29T12:16:57.620Z,16.76
2022-09-29T12:20:15.408Z,16.67
2022-09-29T12:23:21.988Z,16.41
2022-09-29T12:26:25.552Z,16.21
2022-09-29T12:29:34.634Z,16.02
2022-09-29T12:32:42.623Z,15.78
2022-09-29T12:35:53.425Z,15.60
2022-09-29T12:39:01.039Z,15.55
2022-09-29T12:42:21.927Z,15.45
2022-09-29T12:45:24.781Z,15.34
2022-09-29T12:48:36.145Z,15.26
2022-09-29T12:51:49.632Z,15.24
2022-09-29T12:54:57.130Z,15.29
2022-09-29T12:58:02.042Z,15.22
2022-09-29T13:01:21.371Z,15.32
2022-09-29T13:04:33.210Z,15.28
2022-09-29T13:07:54.192Z,15.34
2022-09-29T13:11:00.688Z,15.37
2022-09-29T13:14:26.418Z,15.61
2022-09-29T13:17:44.549Z,15.97
2022-09-29T13:21:12.953Z,16.31
2022-09-29T13:24:24.852Z,16.74
2022-09-29T13:27:33.749Z,16.83
2022-09-29T13:30:39.072Z,16.84
2022-09-29T13:33:46.633Z,16.87
2022-09-29T13:36:49.851Z,16.95
2022-09-29T13:40:03.469Z,16.97
2022-09-29T13:43:28.321Z,16.92
2022-09-29T13:46:31.203Z,16.95
2022-09-29T13:49:34.075Z,16.92
2022-09-29T13:52:43.850Z,16.72
2022-09-29T13:55:51.210Z,16.37
2022-09-29T13:59:05.547Z,16.18
2022-09-29T14:02:35.000Z,16.02
2022-09-29T14:05:40.227Z,15.97
2022-09-29T14:08:52.535Z,16.05
2022-09-29T14:11:59.396Z,16.02
2022-09-29T14:15:05.361Z,15.96
2022-09-29T14:18:23.627Z,16.02
2022-09-29T14:21:45.343Z,16.08
2022-09-29T14:24:50.171Z,16.10
2022-09-29T14:28:02.278Z,16.11
2022-09-29T14:31:17.573Z,16.12
2022-09-29T14:34:24.232Z,16.20
2022-09-29T14:37:29.354Z,16.21
2022-09-29T14:40:33.485Z,16.19
2022-09-29T14:43:47.158Z,16.34
2022-09-29T14:47:26.993Z,16.21
2022-09-29T14:51:03.245Z,16.26
2022-09-29T14:54:11.157Z,16.55
2022-09-29T14:57:34.023Z,16.45
2022-09-29T15:00:55.563Z,16.38
2022-09-29T15:04:05.007Z,16.28
2022-09-29T15:07:11.880Z,16.29
2022-09-29T15:10:44.324Z,16.26
2022-09-29T15:13:48.646Z,16.13
2022-09-29T15:16:58.186Z,16.04
2022-09-29T15:20:00.811Z,15.98
2022-09-29T15:23:09.492Z,15.88
2022-09-29T15:26:15.796Z,15.79
2022-09-29T15:29:19.548Z,15.71
2022-09-29T15:32:24.648Z,15.62
2022-09-29T15:35:27.947Z,15.50
2022-09-29T15:38:41.024Z,15.42
2022-09-29T15:41:45.477Z,15.34
2022-09-29T15:45:01.531Z,15.24
2022-09-29T15:48:06.546Z,15.20
2022-09-29T15:51:17.565Z,15.13
2022-09-29T15:54:20.652Z,15.09
2022-09-29T15:57:45.423Z,15.00
2022-09-29T16:00:48.946Z,14.93
2022-09-29T16:04:02.251Z,14.90
2022-09-29T16:07:05.334Z,14.85
2022-09-29T16:10:14.294Z,14.83
2022-09-29T16:13:22.088Z,14.77
2022-09-29T16:16:29.947Z,14.71
2022-09-29T16:19:33.704Z,14.66
2022-09-29T16:22:36.599Z,14.62
2022-09-29T16:25:40.074Z,14.57
2022-09-29T16:29:03.565Z,14.50
2022-09-29T16:32:25.481Z,14.41
2022-09-29T16:35:49.283Z,14.41
2022-09-29T16:38:54.611Z,14.29
2022-09-29T16:41:59.996Z,14.18
2022-09-29T16:45:04.385Z,14.05
2022-09-29T16:48:09.739Z,13.89
2022-09-29T16:54:43.363Z,13.65
2022-09-29T16:57:55.465Z,13.58
2022-09-29T17:00:58.855Z,13.49
2022-09-29T17:04:01.742Z,13.31
2022-09-29T17:07:05.462Z,13.29
2022-09-29T17:10:10.434Z,13.25
2022-09-29T17:13:17.306Z,13.19
2022-09-29T17:16:22.292Z,13.16
2022-09-29T17:19:26.973Z,13.08
2022-09-29T17:22:34.814Z,13.01
2022-09-29T17:25:38.435Z,12.94
2022-09-29T17:28:41.638Z,12.87
2022-09-29T17:31:44.497Z,12.77
2022-09-29T17:34:47.407Z,12.72
2022-09-29T17:37:50.824Z,12.68
2022-09-29T17:41:04.370Z,12.63
2022-09-29T17:44:10.429Z,12.55
2022-09-29T17:47:27.371Z,12.48
2022-09-29T17:50:37.137Z,12.41
2022-09-29T17:53:40.127Z,12.31
2022-09-29T17:56:44.367Z,12.28
2022-09-29T17:59:47.704Z,12.32
2022-09-29T18:02:57.613Z,12.29
2022-09-29T18:06:00.391Z,12.21
2022-09-29T18:09:03.414Z,12.15
2022-09-29T18:12:06.982Z,12.05
2022-09-29T18:15:10.997Z,11.98
2022-09-29T18:18:19.826Z,12.04
2022-09-29T18:21:22.909Z,12.08
2022-09-29T18:24:28.044Z,12.11
2022-09-29T18:27:30.903Z,12.15
2022-09-29T18:30:40.591Z,12.30
2022-09-29T18:33:43.931Z,12.33
2022-09-29T18:36:46.861Z,12.34
2022-09-29T18:39:51.110Z,12.26
2022-09-29T18:42:56.408Z,12.25
2022-09-29T18:46:00.857Z,12.16
2022-09-29T18:49:05.969Z,12.18
2022-09-29T18:52:11.348Z,12.15
2022-09-29T18:55:14.472Z,12.10
2022-09-29T18:58:18.635Z,12.10
2022-09-29T19:01:24.132Z,12.13
2022-09-29T19:04:26.658Z,12.10
2022-09-29T19:07:33.289Z,12.10
2022-09-29T19:10:37.544Z,12.12
2022-09-29T19:13:43.117Z,12.01
2022-09-29T19:16:47.225Z,11.89
2022-09-29T19:19:51.004Z,11.87
2022-09-29T19:22:54.764Z,11.88
2022-09-29T19:26:02.504Z,11.83
2022-09-29T19:29:07.564Z,11.79
2022-09-29T19:32:13.440Z,11.83
2022-09-29T19:35:18.235Z,11.87
2022-09-29T19:38:21.535Z,11.86
2022-09-29T19:41:27.108Z,11.78
2022-09-29T19:44:34.691Z,11.75
2022-09-29T19:47:38.703Z,11.78
2022-09-29T19:51:04.026Z,11.77
2022-09-29T19:54:13.613Z,11.77
2022-09-29T19:57:17.286Z,11.74
2022-09-29T20:00:22.055Z,11.73
2022-09-29T20:03:25.436Z,11.73
2022-09-29T20:06:28.501Z,11.73
2022-09-29T20:09:32.236Z,11.74
2022-09-29T20:12:39.301Z,11.69
2022-09-29T20:15:47.139Z,11.73
2022-09-29T20:18:49.749Z,11.67
2022-09-29T20:21:53.873Z,11.73
2022-09-29T20:24:56.994Z,11.69
2022-09-29T20:28:02.309Z,11.56
2022-09-29T20:31:08.514Z,11.48
2022-09-29T20:34:12.343Z,11.45
2022-09-29T20:37:15.279Z,11.42
2022-09-29T20:40:19.024Z,11.40
2022-09-29T20:43:23.199Z,11.41
2022-09-29T20:46:27.828Z,11.48
2022-09-29T20:49:31.270Z,11.61
2022-09-29T20:52:36.208Z,11.59
2022-09-29T20:55:40.078Z,11.58
2022-09-29T20:58:48.092Z,11.55
2022-09-29T21:01:53.049Z,11.61
2022-09-29T21:04:56.783Z,11.62
2022-09-29T21:08:01.534Z,11.65
2022-09-29T21:11:07.428Z,11.65
2022-09-29T21:14:13.472Z,11.57
2022-09-29T21:17:16.028Z,11.54
2022-09-29T21:20:21.334Z,11.58
2022-09-29T21:23:27.440Z,11.73
2022-09-29T21:26:32.460Z,11.85
2022-09-29T21:29:37.090Z,11.84
2022-09-29T21:32:40.388Z,11.87
2022-09-29T21:35:43.601Z,12.01
2022-09-29T21:38:45.909Z,11.92
2022-09-29T21:41:47.855Z,11.69
2022-09-29T21:44:49.651Z,11.53
2022-09-29T21:48:10.736Z,11.42
2022-09-29T21:51:14.509Z,11.44
2022-09-29T21:54:21.057Z,11.30
2022-09-29T21:57:23.097Z,11.28
2022-09-29T22:00:24.938Z,11.43
2022-09-29T22:03:29.225Z,11.44
2022-09-29T22:06:32.457Z,11.51
2022-09-29T22:09:34.329Z,11.55
2022-09-29T22:12:36.356Z,11.51
2022-09-29T22:15:38.590Z,11.48
2022-09-29T22:18:41.981Z,11.51
2022-09-29T22:21:44.182Z,11.50
2022-09-29T22:24:46.030Z,11.41
2022-09-29T22:27:47.885Z,11.35
2022-09-29T22:30:49.894Z,11.41
2022-09-29T22:33:57.012Z,11.46
2022-09-29T22:36:58.918Z,11.45
2022-09-29T22:40:02.828Z,11.46
2022-09-29T22:43:05.883Z,11.49
2022-09-29T22:46:12.290Z,11.53
2022-09-29T22:49:14.212Z,11.62
2022-09-29T22:52:16.223Z,11.64
2022-09-29T22:55:18.170Z,11.60
2022-09-29T22:58:19.950Z,11.65
2022-09-29T23:01:22.142Z,11.66
2022-09-29T23:04:24.098Z,11.66
2022-09-29T23:07:25.917Z,11.65
2022-09-29T23:10:27.785Z,11.60
2022-09-29T23:13:31.082Z,11.67
2022-09-29T23:16:33.105Z,11.75
2022-09-29T23:19:35.056Z,11.73
2022-09-29T23:22:36.876Z,11.74
2022-09-29T23:25:38.886Z,11.83
2022-09-29T23:28:40.700Z,11.73
2022-09-29T23:31:49.276Z,11.68
2022-09-29T23:34:51.833Z,11.77
2022-09-29T23:38:12.529Z,11.78
2022-09-29T23:41:14.432Z,11.80
2022-09-29T23:44:20.550Z,11.82
2022-09-29T23:47:22.926Z,11.85
2022-09-29T23:50:24.889Z,11.90
2022-09-29T23:53:26.661Z,11.76
2022-09-29T23:56:28.986Z,11.75
2022-09-29T23:59:31.039Z,11.69
